Airfield :
LOGIN :

Register | Disclaimer

   EN    FR    IT 

 










Legend :    VFR   Marginal VFR   IFR   Intensive IFR   Very Intensive IFR
Visi :
Ceiling :
>= 8 km
>= 3000ft
5 to 8 km
1000 to 3000 ft
1500m to 5 km
500 to 1000 ft
800 to 1500m
200 to 500 ft
< 800m
< 200 ft
Symbols :   Thunderstorms  Fog  Heavy snow  Heavy precipitations  Wind > 20 kt
SIGMETs :     Misc.  Thunderstorms  Icing  Turbulence  Mountain Waves  Volcanic Ashes






- Airport Elevation : 1 ft


EGCK - Caernarfon

CURRENT METAR :
  • 261150Z AUTO 17018KT 8000 -RA SCT008/// OVC034/// 05/04 Q1009

EXPIRED METARs :
  • 261120Z AUTO 17023G33KT 9999 SCT008/// BKN034/// 05/03 Q1009
  • 261050Z AUTO 17021G32KT 9999 -RA BKN010/// OVC030/// 05/03 Q1010
  • 261020Z AUTO 17019KT 9999 -RA BKN008/// OVC020/// 05/03 Q1011
  • 260950Z AUTO 17019KT 9999 -RA BKN016/// BKN031/// 04/03 Q1011

TAF TAF EGCK
Valid from the 26 at 12:00 until the 26 at 21:00 UTC


261104Z 2612/2621 17014KT 9999 FEW014 BKN025
TEMPO 2612/2621 17017G27KT 7000 -RA BKN012
PROB40
TEMPO 2612/2621 4000 RADZ BKN008
BECMG 2615/2618 25010KT



MET'MAP, your aeronautical weather chart ! - Copyright ORBIFLY December 2007 - Disclaimer

ORBIFLY MET'MAP TEAM :

Programming & Development : Alexandra Zaïnal
Concept & original design : Baudouin d'Aumeries
Assistance for programming : Marc-Olivier Méhu
Technical & hardware support : Manuel Goepfert

Contact : metmap@orbifly.com




SOURCES & CREDITS :

   NOAA